sensor_id;sensor_type;location;lat;lon;timestamp;temperature;humidity
62904;DHT22;49000;50.698;13.322;2022-07-04T00:02:19;15.50;45.20
62904;DHT22;49000;50.698;13.322;2022-07-04T00:04:45;15.50;45.90
62904;DHT22;49000;50.698;13.322;2022-07-04T00:07:10;15.50;46.20
62904;DHT22;49000;50.698;13.322;2022-07-04T00:09:36;15.40;48.90
62904;DHT22;49000;50.698;13.322;2022-07-04T00:12:01;15.30;46.70
62904;DHT22;49000;50.698;13.322;2022-07-04T00:14:27;15.30;46.20
62904;DHT22;49000;50.698;13.322;2022-07-04T00:16:52;15.30;50.40
62904;DHT22;49000;50.698;13.322;2022-07-04T00:19:18;15.20;48.90
62904;DHT22;49000;50.698;13.322;2022-07-04T00:21:43;15.20;49.50
62904;DHT22;49000;50.698;13.322;2022-07-04T00:24:09;15.10;49.20
62904;DHT22;49000;50.698;13.322;2022-07-04T00:26:35;15.00;49.00
62904;DHT22;49000;50.698;13.322;2022-07-04T00:29:00;15.00;48.90
62904;DHT22;49000;50.698;13.322;2022-07-04T00:31:26;15.00;48.10
62904;DHT22;49000;50.698;13.322;2022-07-04T00:33:51;15.00;48.10
62904;DHT22;49000;50.698;13.322;2022-07-04T00:36:17;15.00;47.90
62904;DHT22;49000;50.698;13.322;2022-07-04T00:38:42;15.00;47.40
62904;DHT22;49000;50.698;13.322;2022-07-04T00:41:10;15.00;46.90
62904;DHT22;49000;50.698;13.322;2022-07-04T00:43:36;15.00;47.40
62904;DHT22;49000;50.698;13.322;2022-07-04T00:46:05;14.90;48.70
62904;DHT22;49000;50.698;13.322;2022-07-04T00:48:33;14.90;49.60
62904;DHT22;49000;50.698;13.322;2022-07-04T00:50:58;14.80;49.40
62904;DHT22;49000;50.698;13.322;2022-07-04T00:53:24;14.80;49.40
62904;DHT22;49000;50.698;13.322;2022-07-04T00:55:51;14.80;49.20
62904;DHT22;49000;50.698;13.322;2022-07-04T00:58:20;14.70;50.20
62904;DHT22;49000;50.698;13.322;2022-07-04T01:00:47;14.70;48.60
62904;DHT22;49000;50.698;13.322;2022-07-04T01:03:13;14.70;49.30
62904;DHT22;49000;50.698;13.322;2022-07-04T01:05:40;14.70;48.40
62904;DHT22;49000;50.698;13.322;2022-07-04T01:08:06;14.60;48.30
62904;DHT22;49000;50.698;13.322;2022-07-04T01:10:32;14.60;48.80
62904;DHT22;49000;50.698;13.322;2022-07-04T01:12:58;14.50;48.70
62904;DHT22;49000;50.698;13.322;2022-07-04T01:15:23;14.50;49.00
62904;DHT22;49000;50.698;13.322;2022-07-04T01:17:49;14.50;48.00
62904;DHT22;49000;50.698;13.322;2022-07-04T01:20:15;14.40;46.80
62904;DHT22;49000;50.698;13.322;2022-07-04T01:22:41;14.40;47.10
62904;DHT22;49000;50.698;13.322;2022-07-04T01:25:08;14.30;47.90
62904;DHT22;49000;50.698;13.322;2022-07-04T01:27:33;14.30;48.70
62904;DHT22;49000;50.698;13.322;2022-07-04T01:29:59;14.20;50.10
62904;DHT22;49000;50.698;13.322;2022-07-04T01:32:24;14.20;51.10
62904;DHT22;49000;50.698;13.322;2022-07-04T01:34:50;14.20;52.10
62904;DHT22;49000;50.698;13.322;2022-07-04T01:37:15;14.20;52.30
62904;DHT22;49000;50.698;13.322;2022-07-04T01:39:41;14.10;52.00
62904;DHT22;49000;50.698;13.322;2022-07-04T01:42:07;14.10;51.80
62904;DHT22;49000;50.698;13.322;2022-07-04T01:44:32;14.00;51.30
62904;DHT22;49000;50.698;13.322;2022-07-04T01:46:58;14.00;52.10
62904;DHT22;49000;50.698;13.322;2022-07-04T01:49:23;14.00;53.80
62904;DHT22;49000;50.698;13.322;2022-07-04T01:51:50;14.00;56.70
62904;DHT22;49000;50.698;13.322;2022-07-04T01:54:16;14.00;56.70
62904;DHT22;49000;50.698;13.322;2022-07-04T01:56:42;13.90;56.00
62904;DHT22;49000;50.698;13.322;2022-07-04T01:59:08;13.90;57.10
62904;DHT22;49000;50.698;13.322;2022-07-04T02:01:34;13.90;58.10
62904;DHT22;49000;50.698;13.322;2022-07-04T02:04:01;13.90;59.30
62904;DHT22;49000;50.698;13.322;2022-07-04T02:06:28;13.80;58.90
62904;DHT22;49000;50.698;13.322;2022-07-04T02:08:54;13.80;61.40
62904;DHT22;49000;50.698;13.322;2022-07-04T02:11:38;13.80;59.20
62904;DHT22;49000;50.698;13.322;2022-07-04T02:14:23;13.70;60.20
62904;DHT22;49000;50.698;13.322;2022-07-04T02:16:49;13.70;61.90
62904;DHT22;49000;50.698;13.322;2022-07-04T02:19:14;13.70;61.70
62904;DHT22;49000;50.698;13.322;2022-07-04T02:21:40;13.70;63.20
62904;DHT22;49000;50.698;13.322;2022-07-04T02:24:06;13.60;64.90
62904;DHT22;49000;50.698;13.322;2022-07-04T02:26:31;13.60;64.80
62904;DHT22;49000;50.698;13.322;2022-07-04T02:28:57;13.60;84.90
62904;DHT22;49000;50.698;13.322;2022-07-04T02:31:22;13.50;97.80
62904;DHT22;49000;50.698;13.322;2022-07-04T02:33:48;13.50;99.90
62904;DHT22;49000;50.698;13.322;2022-07-04T02:36:14;13.50;99.90
62904;DHT22;49000;50.698;13.322;2022-07-04T02:38:39;13.40;99.90
62904;DHT22;49000;50.698;13.322;2022-07-04T02:41:05;13.40;99.90
62904;DHT22;49000;50.698;13.322;2022-07-04T02:43:30;13.40;99.90
62904;DHT22;49000;50.698;13.322;2022-07-04T02:45:56;13.40;99.90
62904;DHT22;49000;50.698;13.322;2022-07-04T02:48:21;13.30;99.90
62904;DHT22;49000;50.698;13.322;2022-07-04T02:50:47;13.30;99.90
62904;DHT22;49000;50.698;13.322;2022-07-04T02:53:12;13.30;99.90
62904;DHT22;49000;50.698;13.322;2022-07-04T02:55:38;13.30;99.90
62904;DHT22;49000;50.698;13.322;2022-07-04T02:58:03;13.30;99.90
62904;DHT22;49000;50.698;13.322;2022-07-04T03:00:29;13.30;99.90
62904;DHT22;49000;50.698;13.322;2022-07-04T03:02:54;13.30;99.90
62904;DHT22;49000;50.698;13.322;2022-07-04T03:05:20;13.30;99.90
62904;DHT22;49000;50.698;13.322;2022-07-04T03:07:45;13.30;99.90
62904;DHT22;49000;50.698;13.322;2022-07-04T03:10:11;13.30;99.90
62904;DHT22;49000;50.698;13.322;2022-07-04T03:12:37;13.30;99.90
62904;DHT22;49000;50.698;13.322;2022-07-04T03:15:03;13.30;99.90
62904;DHT22;49000;50.698;13.322;2022-07-04T03:17:28;13.30;99.90
62904;DHT22;49000;50.698;13.322;2022-07-04T03:19:57;13.30;99.90
62904;DHT22;49000;50.698;13.322;2022-07-04T03:22:22;13.30;99.90
62904;DHT22;49000;50.698;13.322;2022-07-04T03:24:48;13.30;99.90
62904;DHT22;49000;50.698;13.322;2022-07-04T03:27:13;13.30;99.90
62904;DHT22;49000;50.698;13.322;2022-07-04T03:29:39;13.30;99.90
62904;DHT22;49000;50.698;13.322;2022-07-04T03:32:05;13.30;99.90
62904;DHT22;49000;50.698;13.322;2022-07-04T03:34:31;13.30;99.90
62904;DHT22;49000;50.698;13.322;2022-07-04T03:36:56;13.30;99.90
62904;DHT22;49000;50.698;13.322;2022-07-04T03:39:22;13.30;99.90
62904;DHT22;49000;50.698;13.322;2022-07-04T03:41:47;13.30;99.90
62904;DHT22;49000;50.698;13.322;2022-07-04T03:44:13;13.30;99.90
62904;DHT22;49000;50.698;13.322;2022-07-04T03:46:38;13.40;99.90
62904;DHT22;49000;50.698;13.322;2022-07-04T03:49:04;13.40;99.90
62904;DHT22;49000;50.698;13.322;2022-07-04T03:51:29;13.50;99.90
62904;DHT22;49000;50.698;13.322;2022-07-04T03:53:55;13.50;99.90
62904;DHT22;49000;50.698;13.322;2022-07-04T03:56:20;13.50;99.90
62904;DHT22;49000;50.698;13.322;2022-07-04T03:58:46;13.50;99.90
62904;DHT22;49000;50.698;13.322;2022-07-04T04:01:18;13.50;99.90
62904;DHT22;49000;50.698;13.322;2022-07-04T04:03:45;13.40;99.90
62904;DHT22;49000;50.698;13.322;2022-07-04T04:06:49;13.50;99.90
62904;DHT22;49000;50.698;13.322;2022-07-04T04:09:14;13.60;99.90
62904;DHT22;49000;50.698;13.322;2022-07-04T04:11:43;13.60;99.90
62904;DHT22;49000;50.698;13.322;2022-07-04T04:14:09;13.60;99.90
62904;DHT22;49000;50.698;13.322;2022-07-04T04:16:35;13.70;99.90
62904;DHT22;49000;50.698;13.322;2022-07-04T04:19:00;13.70;99.90
62904;DHT22;49000;50.698;13.322;2022-07-04T04:21:26;13.70;99.90
62904;DHT22;49000;50.698;13.322;2022-07-04T04:23:51;13.70;99.90
62904;DHT22;49000;50.698;13.322;2022-07-04T04:26:17;13.80;99.90
62904;DHT22;49000;50.698;13.322;2022-07-04T04:28:42;13.80;99.90
62904;DHT22;49000;50.698;13.322;2022-07-04T04:31:08;13.80;99.90
62904;DHT22;49000;50.698;13.322;2022-07-04T04:33:35;13.90;99.90
62904;DHT22;49000;50.698;13.322;2022-07-04T04:36:01;13.90;99.90
62904;DHT22;49000;50.698;13.322;2022-07-04T04:38:27;14.00;99.90
62904;DHT22;49000;50.698;13.322;2022-07-04T04:40:52;14.10;99.90
62904;DHT22;49000;50.698;13.322;2022-07-04T04:43:18;14.20;99.90
62904;DHT22;49000;50.698;13.322;2022-07-04T04:45:43;14.30;99.90
62904;DHT22;49000;50.698;13.322;2022-07-04T04:48:09;14.40;99.90
62904;DHT22;49000;50.698;13.322;2022-07-04T04:50:35;14.50;99.90
62904;DHT22;49000;50.698;13.322;2022-07-04T04:53:01;14.70;99.90
62904;DHT22;49000;50.698;13.322;2022-07-04T04:55:26;14.90;99.90
62904;DHT22;49000;50.698;13.322;2022-07-04T04:57:51;15.00;99.90
62904;DHT22;49000;50.698;13.322;2022-07-04T05:00:17;15.20;99.90
62904;DHT22;49000;50.698;13.322;2022-07-04T05:02:43;15.40;99.90
62904;DHT22;49000;50.698;13.322;2022-07-04T05:05:09;15.50;99.90
62904;DHT22;49000;50.698;13.322;2022-07-04T05:07:34;15.60;99.90
62904;DHT22;49000;50.698;13.322;2022-07-04T05:10:00;15.70;99.90
62904;DHT22;49000;50.698;13.322;2022-07-04T05:12:27;15.70;99.90
62904;DHT22;49000;50.698;13.322;2022-07-04T05:14:53;15.80;99.90
62904;DHT22;49000;50.698;13.322;2022-07-04T05:17:19;15.90;99.90
62904;DHT22;49000;50.698;13.322;2022-07-04T05:19:44;16.10;99.90
62904;DHT22;49000;50.698;13.322;2022-07-04T05:22:09;16.30;99.90
62904;DHT22;49000;50.698;13.322;2022-07-04T05:24:36;16.40;99.90
62904;DHT22;49000;50.698;13.322;2022-07-04T05:27:05;16.40;99.90
62904;DHT22;49000;50.698;13.322;2022-07-04T05:29:30;16.40;99.90
62904;DHT22;49000;50.698;13.322;2022-07-04T05:31:56;16.50;99.90
62904;DHT22;49000;50.698;13.322;2022-07-04T05:34:21;16.40;99.90
62904;DHT22;49000;50.698;13.322;2022-07-04T05:36:47;16.50;99.90
62904;DHT22;49000;50.698;13.322;2022-07-04T05:39:12;16.80;99.90
62904;DHT22;49000;50.698;13.322;2022-07-04T05:41:38;16.90;99.90
62904;DHT22;49000;50.698;13.322;2022-07-04T05:44:04;17.10;99.90
62904;DHT22;49000;50.698;13.322;2022-07-04T05:46:29;17.30;99.90
62904;DHT22;49000;50.698;13.322;2022-07-04T05:48:55;17.30;99.90
62904;DHT22;49000;50.698;13.322;2022-07-04T05:51:20;17.20;99.90
62904;DHT22;49000;50.698;13.322;2022-07-04T05:53:46;17.20;99.90
62904;DHT22;49000;50.698;13.322;2022-07-04T05:56:11;17.20;99.90
62904;DHT22;49000;50.698;13.322;2022-07-04T05:58:37;17.10;99.90
62904;DHT22;49000;50.698;13.322;2022-07-04T06:01:02;17.00;99.90
62904;DHT22;49000;50.698;13.322;2022-07-04T06:03:28;17.10;99.90
62904;DHT22;49000;50.698;13.322;2022-07-04T06:05:53;17.30;99.90
62904;DHT22;49000;50.698;13.322;2022-07-04T06:08:19;17.50;99.90
62904;DHT22;49000;50.698;13.322;2022-07-04T06:10:45;17.70;99.90
62904;DHT22;49000;50.698;13.322;2022-07-04T06:13:11;17.70;99.90
62904;DHT22;49000;50.698;13.322;2022-07-04T06:15:37;17.70;99.90
62904;DHT22;49000;50.698;13.322;2022-07-04T06:18:02;17.80;99.90
62904;DHT22;49000;50.698;13.322;2022-07-04T06:20:28;17.80;99.90
62904;DHT22;49000;50.698;13.322;2022-07-04T06:22:54;18.00;99.90
62904;DHT22;49000;50.698;13.322;2022-07-04T06:25:20;18.10;99.90
62904;DHT22;49000;50.698;13.322;2022-07-04T06:27:47;18.20;99.90
62904;DHT22;49000;50.698;13.322;2022-07-04T06:30:13;18.50;99.90
62904;DHT22;49000;50.698;13.322;2022-07-04T06:32:53;18.80;99.90
62904;DHT22;49000;50.698;13.322;2022-07-04T06:35:21;19.00;99.90
62904;DHT22;49000;50.698;13.322;2022-07-04T06:38:06;19.10;99.90
62904;DHT22;49000;50.698;13.322;2022-07-04T06:40:33;19.20;99.90
62904;DHT22;49000;50.698;13.322;2022-07-04T06:42:58;19.20;99.90
62904;DHT22;49000;50.698;13.322;2022-07-04T06:45:24;19.50;99.90
62904;DHT22;49000;50.698;13.322;2022-07-04T06:47:49;19.60;99.90
62904;DHT22;49000;50.698;13.322;2022-07-04T06:50:15;19.70;99.90
62904;DHT22;49000;50.698;13.322;2022-07-04T06:52:41;20.00;99.90
62904;DHT22;49000;50.698;13.322;2022-07-04T06:55:07;20.00;99.90
62904;DHT22;49000;50.698;13.322;2022-07-04T06:57:33;20.40;99.90
62904;DHT22;49000;50.698;13.322;2022-07-04T07:00:00;20.40;99.90
62904;DHT22;49000;50.698;13.322;2022-07-04T07:02:25;20.70;99.90
62904;DHT22;49000;50.698;13.322;2022-07-04T07:04:53;20.40;99.90
62904;DHT22;49000;50.698;13.322;2022-07-04T07:07:19;20.50;99.90
62904;DHT22;49000;50.698;13.322;2022-07-04T07:09:44;21.00;99.90
62904;DHT22;49000;50.698;13.322;2022-07-04T07:12:10;20.90;99.90
62904;DHT22;49000;50.698;13.322;2022-07-04T07:14:35;20.90;99.90
62904;DHT22;49000;50.698;13.322;2022-07-04T07:17:01;21.10;99.90
62904;DHT22;49000;50.698;13.322;2022-07-04T07:19:27;21.40;99.90
62904;DHT22;49000;50.698;13.322;2022-07-04T07:21:53;21.60;99.90
62904;DHT22;49000;50.698;13.322;2022-07-04T07:24:18;21.70;99.90
62904;DHT22;49000;50.698;13.322;2022-07-04T07:26:44;22.00;99.90
62904;DHT22;49000;50.698;13.322;2022-07-04T07:29:09;22.20;99.90
62904;DHT22;49000;50.698;13.322;2022-07-04T07:31:35;22.00;99.90
62904;DHT22;49000;50.698;13.322;2022-07-04T07:34:00;21.70;99.90
62904;DHT22;49000;50.698;13.322;2022-07-04T07:36:25;21.80;99.90
62904;DHT22;49000;50.698;13.322;2022-07-04T07:38:51;22.00;99.90
62904;DHT22;49000;50.698;13.322;2022-07-04T07:41:18;22.20;99.90
62904;DHT22;49000;50.698;13.322;2022-07-04T07:43:44;22.00;99.90
62904;DHT22;49000;50.698;13.322;2022-07-04T07:46:09;21.80;99.90
62904;DHT22;49000;50.698;13.322;2022-07-04T07:48:35;22.10;99.90
62904;DHT22;49000;50.698;13.322;2022-07-04T07:51:00;22.40;99.90
62904;DHT22;49000;50.698;13.322;2022-07-04T07:53:26;22.70;99.90
62904;DHT22;49000;50.698;13.322;2022-07-04T07:55:52;22.90;94.80
62904;DHT22;49000;50.698;13.322;2022-07-04T07:58:17;23.20;92.90
62904;DHT22;49000;50.698;13.322;2022-07-04T08:00:45;23.30;71.00
62904;DHT22;49000;50.698;13.322;2022-07-04T08:03:10;23.20;62.60
62904;DHT22;49000;50.698;13.322;2022-07-04T08:05:55;23.70;69.80
62904;DHT22;49000;50.698;13.322;2022-07-04T08:08:20;24.00;54.50
62904;DHT22;49000;50.698;13.322;2022-07-04T08:10:48;24.20;44.80
62904;DHT22;49000;50.698;13.322;2022-07-04T08:13:14;24.40;46.20
62904;DHT22;49000;50.698;13.322;2022-07-04T08:15:39;24.60;30.70
62904;DHT22;49000;50.698;13.322;2022-07-04T08:18:05;24.50;26.70
62904;DHT22;49000;50.698;13.322;2022-07-04T08:20:30;24.70;27.90
62904;DHT22;49000;50.698;13.322;2022-07-04T08:22:56;25.20;20.60
62904;DHT22;49000;50.698;13.322;2022-07-04T08:25:21;25.60;15.80
62904;DHT22;49000;50.698;13.322;2022-07-04T08:27:47;25.50;18.50
62904;DHT22;49000;50.698;13.322;2022-07-04T08:30:12;25.90;19.80
62904;DHT22;49000;50.698;13.322;2022-07-04T08:32:38;26.20;21.70
62904;DHT22;49000;50.698;13.322;2022-07-04T08:35:04;26.40;21.90
62904;DHT22;49000;50.698;13.322;2022-07-04T08:37:30;26.60;19.40
62904;DHT22;49000;50.698;13.322;2022-07-04T08:39:55;26.90;17.10
62904;DHT22;49000;50.698;13.322;2022-07-04T08:42:21;27.00;15.10
62904;DHT22;49000;50.698;13.322;2022-07-04T08:44:53;27.50;15.60
62904;DHT22;49000;50.698;13.322;2022-07-04T08:47:23;27.60;12.50
62904;DHT22;49000;50.698;13.322;2022-07-04T08:52:40;27.00;6.80
62904;DHT22;49000;50.698;13.322;2022-07-04T10:26:07;28.20;1.40
62904;DHT22;49000;50.698;13.322;2022-07-04T10:28:32;27.20;7.00
62904;DHT22;49000;50.698;13.322;2022-07-04T10:30:59;27.30;4.90
62904;DHT22;49000;50.698;13.322;2022-07-04T10:33:27;27.60;5.70
62904;DHT22;49000;50.698;13.322;2022-07-04T10:35:55;27.90;7.00
62904;DHT22;49000;50.698;13.322;2022-07-04T10:38:31;27.90;4.50
62904;DHT22;49000;50.698;13.322;2022-07-04T10:41:07;27.70;1.00
62904;DHT22;49000;50.698;13.322;2022-07-04T10:46:32;28.30;3.10
62904;DHT22;49000;50.698;13.322;2022-07-04T10:49:06;29.00;3.30
62904;DHT22;49000;50.698;13.322;2022-07-04T10:51:44;29.50;1.00
62904;DHT22;49000;50.698;13.322;2022-07-04T10:54:18;29.00;1.00
62904;DHT22;49000;50.698;13.322;2022-07-04T10:56:52;29.00;1.00
62904;DHT22;49000;50.698;13.322;2022-07-04T10:59:28;29.70;1.00
62904;DHT22;49000;50.698;13.322;2022-07-04T11:02:21;30.20;1.00
62904;DHT22;49000;50.698;13.322;2022-07-04T11:04:51;29.90;1.00
62904;DHT22;49000;50.698;13.322;2022-07-04T11:07:22;30.20;1.00
62904;DHT22;49000;50.698;13.322;2022-07-04T11:13:14;29.50;1.00
62904;DHT22;49000;50.698;13.322;2022-07-04T11:18:10;28.90;1.00
62904;DHT22;49000;50.698;13.322;2022-07-04T11:20:41;29.10;1.30
62904;DHT22;49000;50.698;13.322;2022-07-04T11:23:19;29.30;1.60
62904;DHT22;49000;50.698;13.322;2022-07-04T11:25:47;29.20;1.40
62904;DHT22;49000;50.698;13.322;2022-07-04T11:28:23;29.30;1.00
62904;DHT22;49000;50.698;13.322;2022-07-04T11:30:59;29.10;1.00
62904;DHT22;49000;50.698;13.322;2022-07-04T11:33:31;28.50;1.00
62904;DHT22;49000;50.698;13.322;2022-07-04T11:38:58;28.50;1.50
62904;DHT22;49000;50.698;13.322;2022-07-04T11:41:29;28.40;1.00
62904;DHT22;49000;50.698;13.322;2022-07-04T11:44:18;28.80;1.00
62904;DHT22;49000;50.698;13.322;2022-07-04T11:47:11;28.80;1.10
62904;DHT22;49000;50.698;13.322;2022-07-04T11:49:46;28.70;2.50
62904;DHT22;49000;50.698;13.322;2022-07-04T11:52:12;28.80;1.00
62904;DHT22;49000;50.698;13.322;2022-07-04T11:54:42;28.20;1.00
62904;DHT22;49000;50.698;13.322;2022-07-04T11:57:26;28.60;1.00
62904;DHT22;49000;50.698;13.322;2022-07-04T11:59:57;29.10;1.10
62904;DHT22;49000;50.698;13.322;2022-07-04T12:02:23;29.80;1.70
62904;DHT22;49000;50.698;13.322;2022-07-04T12:04:49;30.80;1.90
62904;DHT22;49000;50.698;13.322;2022-07-04T12:07:19;31.40;1.00
62904;DHT22;49000;50.698;13.322;2022-07-04T12:09:46;31.00;1.00
62904;DHT22;49000;50.698;13.322;2022-07-04T12:12:12;30.80;1.00
62904;DHT22;49000;50.698;13.322;2022-07-04T12:14:48;30.70;1.00
62904;DHT22;49000;50.698;13.322;2022-07-04T12:17:21;30.90;1.00
62904;DHT22;49000;50.698;13.322;2022-07-04T12:19:57;30.40;1.00
62904;DHT22;49000;50.698;13.322;2022-07-04T12:22:35;31.10;1.00
62904;DHT22;49000;50.698;13.322;2022-07-04T12:25:04;31.80;1.00
62904;DHT22;49000;50.698;13.322;2022-07-04T12:27:30;32.40;1.00
62904;DHT22;49000;50.698;13.322;2022-07-04T12:29:57;33.00;1.00
62904;DHT22;49000;50.698;13.322;2022-07-04T12:32:23;33.20;1.00
62904;DHT22;49000;50.698;13.322;2022-07-04T12:34:48;33.20;1.00
62904;DHT22;49000;50.698;13.322;2022-07-04T12:37:15;33.00;1.00
62904;DHT22;49000;50.698;13.322;2022-07-04T12:39:42;33.30;1.00
62904;DHT22;49000;50.698;13.322;2022-07-04T12:42:17;33.80;1.00
62904;DHT22;49000;50.698;13.322;2022-07-04T12:44:44;34.00;1.00
62904;DHT22;49000;50.698;13.322;2022-07-04T12:47:11;34.50;1.00
62904;DHT22;49000;50.698;13.322;2022-07-04T12:49:41;34.20;1.00
62904;DHT22;49000;50.698;13.322;2022-07-04T12:52:14;34.40;1.00
62904;DHT22;49000;50.698;13.322;2022-07-04T12:54:42;33.50;1.00
62904;DHT22;49000;50.698;13.322;2022-07-04T12:57:09;32.30;1.00
62904;DHT22;49000;50.698;13.322;2022-07-04T12:59:35;31.70;1.00
62904;DHT22;49000;50.698;13.322;2022-07-04T13:02:00;31.40;1.00
62904;DHT22;49000;50.698;13.322;2022-07-04T13:04:26;31.40;1.00
62904;DHT22;49000;50.698;13.322;2022-07-04T13:06:52;31.70;1.00
62904;DHT22;49000;50.698;13.322;2022-07-04T13:09:17;31.60;1.00
62904;DHT22;49000;50.698;13.322;2022-07-04T13:11:43;31.60;1.00
62904;DHT22;49000;50.698;13.322;2022-07-04T13:14:27;31.00;1.00
62904;DHT22;49000;50.698;13.322;2022-07-04T13:16:52;30.00;1.00
62904;DHT22;49000;50.698;13.322;2022-07-04T13:19:18;29.40;1.00
62904;DHT22;49000;50.698;13.322;2022-07-04T13:21:45;29.40;1.00
62904;DHT22;49000;50.698;13.322;2022-07-04T13:24:12;30.10;1.00
62904;DHT22;49000;50.698;13.322;2022-07-04T13:26:37;30.80;1.00
62904;DHT22;49000;50.698;13.322;2022-07-04T13:29:03;30.60;1.00
62904;DHT22;49000;50.698;13.322;2022-07-04T13:31:29;29.90;1.00
62904;DHT22;49000;50.698;13.322;2022-07-04T13:33:55;28.80;1.00
62904;DHT22;49000;50.698;13.322;2022-07-04T13:36:20;28.70;1.00
62904;DHT22;49000;50.698;13.322;2022-07-04T13:38:46;29.50;1.00
62904;DHT22;49000;50.698;13.322;2022-07-04T13:41:12;30.20;1.00
62904;DHT22;49000;50.698;13.322;2022-07-04T13:43:37;29.20;1.00
62904;DHT22;49000;50.698;13.322;2022-07-04T13:46:03;28.60;1.00
62904;DHT22;49000;50.698;13.322;2022-07-04T13:48:29;29.20;1.00
62904;DHT22;49000;50.698;13.322;2022-07-04T13:50:54;30.00;1.00
62904;DHT22;49000;50.698;13.322;2022-07-04T13:53:20;31.30;1.00
62904;DHT22;49000;50.698;13.322;2022-07-04T13:55:46;31.90;1.00
62904;DHT22;49000;50.698;13.322;2022-07-04T13:58:11;32.60;1.00
62904;DHT22;49000;50.698;13.322;2022-07-04T14:00:38;32.70;1.00
62904;DHT22;49000;50.698;13.322;2022-07-04T14:03:06;32.70;1.00
62904;DHT22;49000;50.698;13.322;2022-07-04T14:05:32;33.10;1.00
62904;DHT22;49000;50.698;13.322;2022-07-04T14:07:58;33.20;1.00
62904;DHT22;49000;50.698;13.322;2022-07-04T14:10:24;33.30;1.00
62904;DHT22;49000;50.698;13.322;2022-07-04T14:12:50;32.90;1.00
62904;DHT22;49000;50.698;13.322;2022-07-04T14:15:16;32.80;1.00
62904;DHT22;49000;50.698;13.322;2022-07-04T14:17:41;33.50;1.00
62904;DHT22;49000;50.698;13.322;2022-07-04T14:20:09;34.00;1.00
62904;DHT22;49000;50.698;13.322;2022-07-04T14:22:35;34.00;1.00
62904;DHT22;49000;50.698;13.322;2022-07-04T14:25:01;34.30;1.00
62904;DHT22;49000;50.698;13.322;2022-07-04T14:27:26;34.40;1.00
62904;DHT22;49000;50.698;13.322;2022-07-04T14:29:52;35.00;1.00
62904;DHT22;49000;50.698;13.322;2022-07-04T14:32:17;35.70;1.00
62904;DHT22;49000;50.698;13.322;2022-07-04T14:34:43;36.10;1.00
62904;DHT22;49000;50.698;13.322;2022-07-04T14:37:08;35.70;1.00
62904;DHT22;49000;50.698;13.322;2022-07-04T14:39:34;35.20;1.00
62904;DHT22;49000;50.698;13.322;2022-07-04T14:41:59;35.50;1.00
62904;DHT22;49000;50.698;13.322;2022-07-04T14:44:25;35.90;1.00
62904;DHT22;49000;50.698;13.322;2022-07-04T14:46:50;35.90;1.00
62904;DHT22;49000;50.698;13.322;2022-07-04T14:49:16;36.40;1.00
62904;DHT22;49000;50.698;13.322;2022-07-04T14:51:42;36.60;1.00
62904;DHT22;49000;50.698;13.322;2022-07-04T14:54:08;36.60;1.00
62904;DHT22;49000;50.698;13.322;2022-07-04T14:56:34;36.90;1.00
62904;DHT22;49000;50.698;13.322;2022-07-04T14:59:00;36.60;1.00
62904;DHT22;49000;50.698;13.322;2022-07-04T15:01:25;36.80;1.00
62904;DHT22;49000;50.698;13.322;2022-07-04T15:03:52;36.60;1.00
62904;DHT22;49000;50.698;13.322;2022-07-04T15:06:18;35.90;1.00
62904;DHT22;49000;50.698;13.322;2022-07-04T15:08:43;35.40;1.00
62904;DHT22;49000;50.698;13.322;2022-07-04T15:11:09;35.40;1.00
62904;DHT22;49000;50.698;13.322;2022-07-04T15:13:34;35.50;1.00
62904;DHT22;49000;50.698;13.322;2022-07-04T15:16:00;35.40;1.00
62904;DHT22;49000;50.698;13.322;2022-07-04T15:18:25;34.90;1.00
62904;DHT22;49000;50.698;13.322;2022-07-04T15:20:51;33.90;1.00
62904;DHT22;49000;50.698;13.322;2022-07-04T15:23:35;33.60;1.00
62904;DHT22;49000;50.698;13.322;2022-07-04T15:26:19;33.30;1.00
62904;DHT22;49000;50.698;13.322;2022-07-04T15:28:44;34.10;1.00
62904;DHT22;49000;50.698;13.322;2022-07-04T15:31:10;34.20;1.00
62904;DHT22;49000;50.698;13.322;2022-07-04T15:33:38;33.90;1.00
62904;DHT22;49000;50.698;13.322;2022-07-04T15:36:04;34.30;1.00
62904;DHT22;49000;50.698;13.322;2022-07-04T15:38:30;35.00;1.00
62904;DHT22;49000;50.698;13.322;2022-07-04T15:40:56;34.90;1.00
62904;DHT22;49000;50.698;13.322;2022-07-04T15:43:21;34.60;1.00
62904;DHT22;49000;50.698;13.322;2022-07-04T15:45:47;34.30;1.00
62904;DHT22;49000;50.698;13.322;2022-07-04T15:48:13;33.80;1.00
62904;DHT22;49000;50.698;13.322;2022-07-04T15:50:39;33.30;1.00
62904;DHT22;49000;50.698;13.322;2022-07-04T15:53:05;33.20;1.00
62904;DHT22;49000;50.698;13.322;2022-07-04T15:55:30;33.80;1.00
62904;DHT22;49000;50.698;13.322;2022-07-04T15:57:56;34.00;1.00
62904;DHT22;49000;50.698;13.322;2022-07-04T16:00:21;33.70;1.00
62904;DHT22;49000;50.698;13.322;2022-07-04T16:02:47;33.60;1.00
62904;DHT22;49000;50.698;13.322;2022-07-04T16:05:12;33.20;1.00
62904;DHT22;49000;50.698;13.322;2022-07-04T16:07:38;33.50;1.00
62904;DHT22;49000;50.698;13.322;2022-07-04T16:10:07;33.70;1.00
62904;DHT22;49000;50.698;13.322;2022-07-04T16:12:32;34.10;1.00
62904;DHT22;49000;50.698;13.322;2022-07-04T16:14:58;34.60;1.00
62904;DHT22;49000;50.698;13.322;2022-07-04T16:17:24;35.00;1.00
62904;DHT22;49000;50.698;13.322;2022-07-04T16:19:49;35.00;1.00
62904;DHT22;49000;50.698;13.322;2022-07-04T16:22:15;34.90;1.00
62904;DHT22;49000;50.698;13.322;2022-07-04T16:24:40;34.60;1.00
62904;DHT22;49000;50.698;13.322;2022-07-04T16:27:06;34.40;1.00
62904;DHT22;49000;50.698;13.322;2022-07-04T16:29:31;34.00;1.00
62904;DHT22;49000;50.698;13.322;2022-07-04T16:31:57;33.60;1.00
62904;DHT22;49000;50.698;13.322;2022-07-04T16:34:22;33.00;1.00
62904;DHT22;49000;50.698;13.322;2022-07-04T16:36:48;32.40;1.00
62904;DHT22;49000;50.698;13.322;2022-07-04T16:39:14;32.20;1.00
62904;DHT22;49000;50.698;13.322;2022-07-04T16:41:40;31.80;1.00
62904;DHT22;49000;50.698;13.322;2022-07-04T16:44:06;32.20;1.00
62904;DHT22;49000;50.698;13.322;2022-07-04T16:46:32;32.80;1.00
62904;DHT22;49000;50.698;13.322;2022-07-04T16:48:57;33.40;1.00
62904;DHT22;49000;50.698;13.322;2022-07-04T16:51:23;33.40;1.00
62904;DHT22;49000;50.698;13.322;2022-07-04T16:53:48;32.60;1.00
62904;DHT22;49000;50.698;13.322;2022-07-04T16:56:14;32.50;1.00
62904;DHT22;49000;50.698;13.322;2022-07-04T16:58:39;32.20;1.00
62904;DHT22;49000;50.698;13.322;2022-07-04T17:01:05;32.20;1.00
62904;DHT22;49000;50.698;13.322;2022-07-04T17:03:30;32.70;1.00
62904;DHT22;49000;50.698;13.322;2022-07-04T17:05:56;33.50;1.00
62904;DHT22;49000;50.698;13.322;2022-07-04T17:08:21;33.80;1.00